Jeffersonville, Georgia
Current Conditions -  °F | °C
As of 10:58 AM on Thursday 18 Dec 2014 (Local Time) from KWRB Reporting Station
Clear Clear  
Wind Chill: 49°   Ceiling: Unl
Heat Index: 49°   Visibility: 10mi
Dew Point: 35°   Wind: 3mph
Humidity: 58%   Direction: NA
Pressure: 30.19"   Gusts: NA
Location:  32.69°N, 83.35°W
Report Text: KWRB 181558Z AUTO VRB03KT 10SM CLR 09/02 A3019 RMK AO2 SLP227 T00940015
Loading
Personal Weather Stations






























Interactive Weather Map New forecast layout! Learn more

10-Day Weather Forecast

Advertisements
Track Severe Weather on mobile